Barstow, California
Current Conditions -  °F | °C
As of 1:50 PM on Saturday 25 Oct 2014 (Local Time) from KDAG Reporting Station
Clear Clear  
Wind Chill: 87°   Ceiling: Unl
Heat Index: 87°   Visibility: 10mi
Dew Point: 39°   Wind: 23mph
Humidity: 18%   Direction: 240°WSW
Pressure: 30"   Gusts: 30mph
Location:  34.89°N, 117.02°W
Report Text: KDAG 252050Z AUTO 24020G26KT 10SM CLR 31/04 A3000 RMK AO2 PK WND 24035/2023 SLP135 T03060039 56023
Loading
Personal Weather Stations






























Interactive Weather Map
Tropical Storm Tracking
New forecast layout! Learn more

10-Day Weather Forecast

Advertisements
Track Severe Weather on mobile